Time;durP1;ratioP1;P1;durP2;ratioP2;P2;SDS_P1;SDS_P2;PMS_P1;PMS_P2;Temp;Humidity;BMP_temperature;BMP_pressure;BME280_temperature;BME280_humidity;BME280_pressure;Samples;Min_cycle;Max_cycle;Signal;HPM_P1;HPM_P2
2022/09/14 00:02:16;;;;;;;;;;;21.70;72.80;;;;;;5042209;28;19999;-74
2022/09/14 00:04:43;;;;;;;;;;;21.70;72.90;;;;;;5039340;28;20001;-74
2022/09/14 00:07:09;;;;;;;;;;;21.70;73.00;;;;;;5043439;28;20421;-73
2022/09/14 00:09:36;;;;;;;;;;;21.70;73.20;;;;;;5043457;28;19979;-74
2022/09/14 00:12:03;;;;;;;;;;;21.60;73.20;;;;;;5040684;28;19980;-74
2022/09/14 00:14:29;;;;;;;;;;;21.70;73.50;;;;;;5042345;28;19999;-74
2022/09/14 00:16:56;;;;;;;;;;;21.60;73.50;;;;;;5043619;28;19992;-74
2022/09/14 00:19:25;;;;;;;;;;;21.70;73.70;;;;;;5043266;28;19983;-74
2022/09/14 00:21:52;;;;;;;;;;;21.60;73.80;;;;;;5036834;28;20034;-74
2022/09/14 00:24:19;;;;;;;;;;;21.60;73.80;;;;;;5041927;28;19996;-75
2022/09/14 00:26:45;;;;;;;;;;;21.60;74.00;;;;;;5040302;28;19988;-74
2022/09/14 00:29:12;;;;;;;;;;;21.50;74.10;;;;;;5040164;28;19975;-74
2022/09/14 00:31:39;;;;;;;;;;;21.60;74.30;;;;;;5038021;28;19992;-74
2022/09/14 00:34:06;;;;;;;;;;;21.50;74.30;;;;;;5039395;28;20007;-74
2022/09/14 00:36:38;;;;;;;;;;;21.50;74.40;;;;;;5043004;28;20388;-74
2022/09/14 00:39:06;;;;;;;;;;;21.50;74.50;;;;;;5040348;28;19983;-74
2022/09/14 00:41:34;;;;;;;;;;;21.50;74.70;;;;;;5039924;28;20341;-74
2022/09/14 00:44:01;;;;;;;;;;;21.50;74.80;;;;;;5040396;28;20415;-74
2022/09/14 00:46:29;;;;;;;;;;;21.40;74.80;;;;;;5039788;28;20592;-74
2022/09/14 00:48:57;;;;;;;;;;;21.50;75.00;;;;;;5039347;28;19983;-74
2022/09/14 00:51:24;;;;;;;;;;;21.40;75.00;;;;;;5041414;28;19983;-74
2022/09/14 00:53:52;;;;;;;;;;;21.40;75.00;;;;;;5042872;28;19980;-74
2022/09/14 00:56:19;;;;;;;;;;;21.40;75.10;;;;;;5040770;28;20025;-74
2022/09/14 00:58:47;;;;;;;;;;;21.40;75.10;;;;;;5038853;28;19979;-74
2022/09/14 01:01:14;;;;;;;;;;;21.40;75.20;;;;;;5041245;28;20428;-72
2022/09/14 01:03:40;;;;;;;;;;;21.30;75.10;;;;;;5039208;28;19984;-74
2022/09/14 01:06:10;;;;;;;;;;;21.40;75.20;;;;;;5041103;28;20054;-74
2022/09/14 01:08:43;;;;;;;;;;;21.30;75.30;;;;;;5042360;28;20130;-74
2022/09/14 01:11:26;;;;;;;;;;;21.30;75.40;;;;;;5040961;28;20053;-74
2022/09/14 01:13:56;;;;;;;;;;;21.30;75.50;;;;;;5034670;28;20593;-74
2022/09/14 01:16:27;;;;;;;;;;;21.30;75.50;;;;;;5038580;28;20006;-74
2022/09/14 01:18:56;;;;;;;;;;;21.30;75.50;;;;;;5040498;28;19975;-74
2022/09/14 01:21:24;;;;;;;;;;;21.30;75.60;;;;;;5037641;28;19991;-74
2022/09/14 01:23:56;;;;;;;;;;;21.20;75.60;;;;;;5042650;28;19983;-74
2022/09/14 01:26:37;;;;;;;;;;;21.20;75.70;;;;;;5042152;28;20105;-74
2022/09/14 01:29:08;;;;;;;;;;;21.20;75.70;;;;;;5042116;28;19995;-74
2022/09/14 01:31:37;;;;;;;;;;;21.20;75.80;;;;;;5042718;28;19992;-74
2022/09/14 01:34:06;;;;;;;;;;;21.20;75.90;;;;;;5045088;28;19999;-73
2022/09/14 01:36:34;;;;;;;;;;;21.20;75.90;;;;;;5040933;28;19983;-75
2022/09/14 01:39:01;;;;;;;;;;;21.20;76.10;;;;;;5043778;28;20360;-74
2022/09/14 01:41:30;;;;;;;;;;;21.10;76.10;;;;;;5035502;28;19979;-74
2022/09/14 01:43:57;;;;;;;;;;;21.10;76.20;;;;;;5044190;28;19997;-74
2022/09/14 01:46:28;;;;;;;;;;;21.10;76.30;;;;;;5040537;28;20459;-74
2022/09/14 01:49:00;;;;;;;;;;;21.10;76.40;;;;;;5037805;28;20092;-73
2022/09/14 01:51:31;;;;;;;;;;;21.10;76.50;;;;;;5041968;28;19994;-73
2022/09/14 01:54:01;;;;;;;;;;;21.10;76.60;;;;;;5045789;28;20487;-73
2022/09/14 01:56:31;;;;;;;;;;;21.10;76.80;;;;;;5038189;28;21881;-73
2022/09/14 01:59:00;;;;;;;;;;;21.00;77.00;;;;;;5041603;28;19980;-74
2022/09/14 02:01:30;;;;;;;;;;;21.00;77.10;;;;;;5042111;28;20003;-74
2022/09/14 02:03:59;;;;;;;;;;;21.00;77.30;;;;;;5043204;28;19998;-74
2022/09/14 02:06:28;;;;;;;;;;;21.00;77.50;;;;;;5043524;28;20080;-75
2022/09/14 02:08:55;;;;;;;;;;;21.00;77.60;;;;;;5041876;28;20018;-73
2022/09/14 02:11:22;;;;;;;;;;;20.90;77.60;;;;;;5039158;28;19979;-73
2022/09/14 02:13:48;;;;;;;;;;;20.90;77.70;;;;;;5041468;28;19976;-74
2022/09/14 02:16:15;;;;;;;;;;;20.90;77.80;;;;;;5042110;28;20835;-72
2022/09/14 02:18:44;;;;;;;;;;;20.90;77.90;;;;;;5039823;28;20030;-73
2022/09/14 02:21:12;;;;;;;;;;;20.90;78.10;;;;;;5037159;28;19976;-73
2022/09/14 02:23:38;;;;;;;;;;;20.80;78.20;;;;;;5036896;28;19980;-72
2022/09/14 02:26:05;;;;;;;;;;;20.80;78.30;;;;;;5041164;28;19983;-73
2022/09/14 02:28:31;;;;;;;;;;;20.80;78.50;;;;;;5040914;28;20046;-72
2022/09/14 02:31:05;;;;;;;;;;;20.80;78.60;;;;;;5041828;28;19991;-72
2022/09/14 02:33:35;;;;;;;;;;;20.80;78.70;;;;;;5042377;28;20037;-73
2022/09/14 02:36:06;;;;;;;;;;;20.70;78.80;;;;;;5040678;28;19976;-72
2022/09/14 02:38:36;;;;;;;;;;;20.70;78.80;;;;;;5039665;28;19983;-72
2022/09/14 02:41:04;;;;;;;;;;;20.70;78.90;;;;;;5040488;28;20394;-72
2022/09/14 02:43:35;;;;;;;;;;;20.70;79.10;;;;;;5041333;28;20029;-72
2022/09/14 02:46:06;;;;;;;;;;;20.60;79.20;;;;;;5036632;28;19999;-72
2022/09/14 02:48:37;;;;;;;;;;;20.60;79.30;;;;;;5039344;28;20025;-72
2022/09/14 02:51:07;;;;;;;;;;;20.60;79.50;;;;;;5041554;28;19976;-72
2022/09/14 02:53:36;;;;;;;;;;;20.60;79.60;;;;;;5040305;28;19979;-72
2022/09/14 02:56:04;;;;;;;;;;;20.60;79.70;;;;;;5041225;28;20018;-72
2022/09/14 02:58:35;;;;;;;;;;;20.50;79.70;;;;;;5038335;28;19975;-72
2022/09/14 03:01:02;;;;;;;;;;;20.50;79.70;;;;;;5039988;28;20560;-73
2022/09/14 03:03:29;;;;;;;;;;;20.50;79.90;;;;;;5042447;28;19983;-72
2022/09/14 03:05:56;;;;;;;;;;;20.50;80.00;;;;;;5040377;28;19992;-72
2022/09/14 03:08:24;;;;;;;;;;;20.50;80.20;;;;;;5047223;28;20002;-72
2022/09/14 03:10:50;;;;;;;;;;;20.40;80.20;;;;;;5043763;28;19980;-72
2022/09/14 03:13:17;;;;;;;;;;;20.40;80.30;;;;;;5045465;28;19979;-72
2022/09/14 03:15:44;;;;;;;;;;;20.40;80.40;;;;;;5039192;28;20045;-72
2022/09/14 03:18:10;;;;;;;;;;;20.40;80.40;;;;;;5042180;28;19987;-72
2022/09/14 03:20:37;;;;;;;;;;;20.30;80.50;;;;;;5042338;28;20030;-73
2022/09/14 03:23:04;;;;;;;;;;;20.40;80.70;;;;;;5041356;28;19975;-72
2022/09/14 03:25:35;;;;;;;;;;;20.40;80.80;;;;;;5043937;28;20037;-72
2022/09/14 03:28:02;;;;;;;;;;;20.30;80.80;;;;;;5045105;28;19992;-72
2022/09/14 03:30:28;;;;;;;;;;;20.30;80.90;;;;;;5039602;28;20751;-73
2022/09/14 03:32:55;;;;;;;;;;;20.30;81.00;;;;;;5045005;28;19983;-72
2022/09/14 03:35:22;;;;;;;;;;;20.30;81.00;;;;;;5044324;28;20002;-72
2022/09/14 03:37:48;;;;;;;;;;;20.20;81.10;;;;;;5047789;28;20003;-72
2022/09/14 03:40:15;;;;;;;;;;;20.20;81.10;;;;;;5039297;28;19982;-73
2022/09/14 03:42:44;;;;;;;;;;;20.20;81.20;;;;;;5041936;28;19983;-72
2022/09/14 03:45:10;;;;;;;;;;;20.20;81.30;;;;;;5040949;28;19996;-73
2022/09/14 03:47:37;;;;;;;;;;;20.20;81.40;;;;;;5043144;28;19980;-72
2022/09/14 03:50:04;;;;;;;;;;;20.20;81.50;;;;;;5039922;28;20022;-72
2022/09/14 03:52:30;;;;;;;;;;;20.10;81.50;;;;;;5045618;28;19980;-72
2022/09/14 03:54:57;;;;;;;;;;;20.10;81.60;;;;;;5042827;28;19992;-72
2022/09/14 03:57:23;;;;;;;;;;;20.10;81.70;;;;;;5044559;28;19976;-72
2022/09/14 03:59:51;;;;;;;;;;;20.10;81.70;;;;;;5041708;28;19975;-72
2022/09/14 04:02:18;;;;;;;;;;;20.10;81.90;;;;;;5042344;28;20006;-73
2022/09/14 04:04:47;;;;;;;;;;;20.00;81.90;;;;;;5041484;28;19999;-73
2022/09/14 04:07:13;;;;;;;;;;;20.00;82.10;;;;;;5041639;28;20324;-73
2022/09/14 04:09:40;;;;;;;;;;;20.00;82.30;;;;;;5041401;28;20474;-73
2022/09/14 04:12:06;;;;;;;;;;;20.00;82.30;;;;;;5040666;28;19984;-74
2022/09/14 04:14:33;;;;;;;;;;;20.00;82.50;;;;;;5041198;28;20003;-73
2022/09/14 04:17:01;;;;;;;;;;;20.00;82.60;;;;;;5038597;28;20470;-73
2022/09/14 04:19:27;;;;;;;;;;;19.90;82.50;;;;;;5039244;28;20625;-73
2022/09/14 04:21:54;;;;;;;;;;;19.90;82.50;;;;;;5038826;28;19974;-73
2022/09/14 04:24:21;;;;;;;;;;;19.90;82.60;;;;;;5039640;28;19936;-73
2022/09/14 04:26:47;;;;;;;;;;;19.90;82.70;;;;;;5039913;28;20428;-73
2022/09/14 04:29:14;;;;;;;;;;;19.90;82.80;;;;;;5043808;28;19999;-74
2022/09/14 04:31:40;;;;;;;;;;;19.90;82.90;;;;;;5042660;28;19952;-74
2022/09/14 04:34:10;;;;;;;;;;;19.80;82.90;;;;;;5041116;28;20790;-73
2022/09/14 04:36:36;;;;;;;;;;;19.80;83.00;;;;;;5044770;28;19932;-74
2022/09/14 04:39:03;;;;;;;;;;;19.80;83.10;;;;;;5043239;28;20889;-73
2022/09/14 04:41:30;;;;;;;;;;;19.80;83.10;;;;;;5041741;28;19929;-73
2022/09/14 04:43:58;;;;;;;;;;;19.80;83.20;;;;;;5043667;28;19929;-73
2022/09/14 04:46:25;;;;;;;;;;;19.80;83.30;;;;;;5043128;28;19936;-73
2022/09/14 04:48:52;;;;;;;;;;;19.80;83.30;;;;;;5042682;28;19929;-74
2022/09/14 04:51:21;;;;;;;;;;;19.70;83.30;;;;;;5042185;28;19932;-73
2022/09/14 04:53:49;;;;;;;;;;;19.70;83.40;;;;;;5040628;28;20396;-73
2022/09/14 04:56:16;;;;;;;;;;;19.70;83.50;;;;;;5041551;28;20019;-73
2022/09/14 04:58:45;;;;;;;;;;;19.70;83.50;;;;;;5039681;28;20011;-73
2022/09/14 05:01:12;;;;;;;;;;;19.60;85.20;;;;;;5041931;28;19929;-73
2022/09/14 05:03:39;;;;;;;;;;;19.60;88.10;;;;;;5034279;28;19929;-75
2022/09/14 05:06:07;;;;;;;;;;;19.50;88.70;;;;;;5043480;28;19928;-75
2022/09/14 05:08:37;;;;;;;;;;;19.40;88.70;;;;;;5043872;28;19929;-74
2022/09/14 05:11:04;;;;;;;;;;;19.40;88.50;;;;;;5045003;28;19925;-74
2022/09/14 05:13:30;;;;;;;;;;;19.40;88.40;;;;;;5038519;28;19935;-74
2022/09/14 05:16:04;;;;;;;;;;;19.40;88.30;;;;;;5042780;28;20424;-74
2022/09/14 05:18:30;;;;;;;;;;;19.40;88.10;;;;;;5039126;28;19929;-75
2022/09/14 05:20:57;;;;;;;;;;;19.40;88.00;;;;;;5037867;28;19936;-69
2022/09/14 05:23:24;;;;;;;;;;;19.40;88.00;;;;;;5041934;28;19936;-69
2022/09/14 05:25:53;;;;;;;;;;;19.40;88.00;;;;;;5038682;28;20031;-69
2022/09/14 05:28:20;;;;;;;;;;;19.40;87.90;;;;;;5042079;28;19925;-70
2022/09/14 05:30:46;;;;;;;;;;;19.40;87.80;;;;;;5042571;28;19928;-70
2022/09/14 05:33:13;;;;;;;;;;;19.40;87.80;;;;;;5044094;28;19928;-69
2022/09/14 05:35:40;;;;;;;;;;;19.30;87.70;;;;;;5041421;28;19933;-71
2022/09/14 05:38:06;;;;;;;;;;;19.40;87.70;;;;;;5043548;28;19929;-71
2022/09/14 05:40:33;;;;;;;;;;;19.40;87.60;;;;;;5041383;28;20304;-71
2022/09/14 05:43:01;;;;;;;;;;;19.30;87.50;;;;;;5049838;28;19929;-70
2022/09/14 05:45:27;;;;;;;;;;;19.30;87.60;;;;;;5043582;28;20006;-71
2022/09/14 05:47:54;;;;;;;;;;;19.30;87.60;;;;;;5043999;28;19929;-71
2022/09/14 05:50:22;;;;;;;;;;;19.30;87.60;;;;;;5040502;28;19932;-70
2022/09/14 05:52:50;;;;;;;;;;;19.30;87.60;;;;;;5043635;28;19932;-70
2022/09/14 05:55:16;;;;;;;;;;;19.30;87.60;;;;;;5036966;28;19939;-69
2022/09/14 05:57:43;;;;;;;;;;;19.30;87.60;;;;;;5043267;28;19929;-70
2022/09/14 06:00:12;;;;;;;;;;;19.30;87.60;;;;;;5041469;28;19932;-69
2022/09/14 06:02:38;;;;;;;;;;;19.30;87.60;;;;;;5036605;28;19936;-70
2022/09/14 06:05:05;;;;;;;;;;;19.30;87.60;;;;;;5041444;28;19929;-70
2022/09/14 06:07:31;;;;;;;;;;;19.30;87.70;;;;;;5042242;28;20392;-70
2022/09/14 06:09:58;;;;;;;;;;;19.30;87.70;;;;;;5042461;28;19929;-69
2022/09/14 06:12:26;;;;;;;;;;;19.20;87.60;;;;;;5042300;28;19990;-70
2022/09/14 06:14:52;;;;;;;;;;;19.20;87.70;;;;;;5042773;28;20464;-70
2022/09/14 06:17:20;;;;;;;;;;;19.20;87.70;;;;;;5040524;28;19956;-70
2022/09/14 06:19:47;;;;;;;;;;;19.20;87.70;;;;;;5041585;28;20002;-70
2022/09/14 06:22:13;;;;;;;;;;;19.30;87.80;;;;;;5040201;28;19933;-70
2022/09/14 06:24:40;;;;;;;;;;;19.20;87.70;;;;;;5040368;28;20833;-71
2022/09/14 06:27:07;;;;;;;;;;;19.20;87.80;;;;;;5042142;28;19928;-71
2022/09/14 06:29:34;;;;;;;;;;;19.20;87.80;;;;;;5038146;28;20404;-71
2022/09/14 06:32:01;;;;;;;;;;;19.20;87.90;;;;;;5042941;28;19929;-70
2022/09/14 06:34:29;;;;;;;;;;;19.20;87.90;;;;;;5038988;28;19969;-70
2022/09/14 06:36:55;;;;;;;;;;;19.20;88.00;;;;;;5043732;28;19925;-71
2022/09/14 06:39:23;;;;;;;;;;;19.20;88.00;;;;;;5042106;28;20297;-70
2022/09/14 06:41:50;;;;;;;;;;;19.10;88.00;;;;;;5040383;28;20393;-70
2022/09/14 06:44:17;;;;;;;;;;;19.20;88.10;;;;;;5046215;28;19933;-71
2022/09/14 06:46:44;;;;;;;;;;;19.20;88.20;;;;;;5046477;28;20472;-70
2022/09/14 06:49:12;;;;;;;;;;;19.20;88.20;;;;;;5044409;28;19928;-71
2022/09/14 06:51:41;;;;;;;;;;;19.10;88.20;;;;;;5046721;28;19928;-71
2022/09/14 06:54:08;;;;;;;;;;;19.20;88.30;;;;;;5045841;28;20471;-70
2022/09/14 06:56:35;;;;;;;;;;;19.10;88.10;;;;;;5039174;28;19987;-71
2022/09/14 06:59:02;;;;;;;;;;;19.10;88.30;;;;;;5046475;28;20010;-70
2022/09/14 07:01:28;;;;;;;;;;;19.20;88.30;;;;;;5045914;28;19936;-70
2022/09/14 07:03:56;;;;;;;;;;;19.10;88.30;;;;;;5041426;28;20562;-70
2022/09/14 07:06:24;;;;;;;;;;;19.20;88.40;;;;;;5047750;28;19929;-70
2022/09/14 07:08:53;;;;;;;;;;;19.10;88.40;;;;;;5042687;28;19982;-71
2022/09/14 07:11:22;;;;;;;;;;;19.10;88.50;;;;;;5043272;28;20023;-70
2022/09/14 07:13:48;;;;;;;;;;;19.10;88.50;;;;;;5046666;28;20038;-71
2022/09/14 07:16:15;;;;;;;;;;;19.10;88.50;;;;;;5047790;28;19936;-71
2022/09/14 07:18:42;;;;;;;;;;;19.20;88.70;;;;;;5045168;28;20499;-70
2022/09/14 07:21:10;;;;;;;;;;;19.20;88.70;;;;;;5039497;28;20393;-70
2022/09/14 07:23:37;;;;;;;;;;;19.10;88.60;;;;;;5046084;28;20018;-70
2022/09/14 07:26:06;;;;;;;;;;;19.10;88.60;;;;;;5043797;28;19929;-70
2022/09/14 07:28:33;;;;;;;;;;;19.10;88.70;;;;;;5044300;28;20019;-69
2022/09/14 07:31:00;;;;;;;;;;;19.20;88.80;;;;;;5045153;28;19937;-70
2022/09/14 07:33:26;;;;;;;;;;;19.10;88.70;;;;;;5047204;28;19990;-70
2022/09/14 07:35:53;;;;;;;;;;;19.10;89.40;;;;;;5049222;28;19932;-70
2022/09/14 07:38:20;;;;;;;;;;;19.10;88.60;;;;;;5045610;28;20181;-71
2022/09/14 07:40:46;;;;;;;;;;;19.20;88.70;;;;;;5047142;28;19940;-70
2022/09/14 07:43:14;;;;;;;;;;;19.20;88.70;;;;;;5045988;28;19929;-70
2022/09/14 07:45:41;;;;;;;;;;;19.20;88.70;;;;;;5044472;28;19925;-70
2022/09/14 07:48:07;;;;;;;;;;;19.20;88.80;;;;;;5045480;28;19932;-70
2022/09/14 07:50:34;;;;;;;;;;;19.20;89.10;;;;;;5042254;28;19939;-70
2022/09/14 07:53:01;;;;;;;;;;;19.20;89.70;;;;;;5045208;28;19932;-70
2022/09/14 07:55:27;;;;;;;;;;;19.20;89.90;;;;;;5040226;28;19935;-70
2022/09/14 07:57:54;;;;;;;;;;;19.20;90.00;;;;;;5045325;28;20016;-70
2022/09/14 08:00:22;;;;;;;;;;;19.20;89.80;;;;;;5044547;28;20347;-71
2022/09/14 08:02:52;;;;;;;;;;;19.20;90.20;;;;;;5045920;28;19933;-70
2022/09/14 08:05:18;;;;;;;;;;;19.30;91.90;;;;;;5045581;28;20027;-70
2022/09/14 08:07:45;;;;;;;;;;;19.30;91.40;;;;;;5043813;28;19929;-70
2022/09/14 08:10:12;;;;;;;;;;;19.30;91.10;;;;;;5040809;28;19932;-70
2022/09/14 08:12:38;;;;;;;;;;;19.30;91.00;;;;;;5045719;28;19935;-70
2022/09/14 08:15:05;;;;;;;;;;;19.30;91.00;;;;;;5045255;28;19936;-71
2022/09/14 08:17:33;;;;;;;;;;;19.30;91.30;;;;;;5046369;28;19932;-70
2022/09/14 08:20:00;;;;;;;;;;;19.30;91.40;;;;;;5042547;28;20388;-70
2022/09/14 08:22:26;;;;;;;;;;;19.40;91.60;;;;;;5038391;28;19991;-70
2022/09/14 08:24:53;;;;;;;;;;;19.40;91.70;;;;;;5040970;28;19936;-70
2022/09/14 08:27:19;;;;;;;;;;;19.40;91.60;;;;;;5046911;28;19933;-70
2022/09/14 08:29:46;;;;;;;;;;;19.40;91.60;;;;;;5043436;28;19955;-70
2022/09/14 08:32:12;;;;;;;;;;;19.50;91.70;;;;;;5040917;28;20408;-70
2022/09/14 08:34:40;;;;;;;;;;;19.50;91.80;;;;;;5039457;28;19928;-71
2022/09/14 08:37:09;;;;;;;;;;;19.60;91.80;;;;;;5044552;28;19928;-70
2022/09/14 08:39:36;;;;;;;;;;;19.60;91.80;;;;;;5046048;28;19933;-70
2022/09/14 08:42:04;;;;;;;;;;;19.60;91.70;;;;;;5042074;28;19932;-70
2022/09/14 08:44:34;;;;;;;;;;;19.60;91.60;;;;;;5044455;28;20400;-70
2022/09/14 08:47:01;;;;;;;;;;;19.70;91.50;;;;;;5043927;28;19933;-71
2022/09/14 08:49:38;;;;;;;;;;;19.70;91.40;;;;;;5040272;28;20023;-71
2022/09/14 08:52:10;;;;;;;;;;;19.70;91.30;;;;;;5044558;28;19928;-70
2022/09/14 08:54:37;;;;;;;;;;;19.80;91.10;;;;;;5038728;28;20284;-71
2022/09/14 08:57:08;;;;;;;;;;;19.80;91.20;;;;;;5040943;28;19928;-71
2022/09/14 08:59:42;;;;;;;;;;;19.90;91.20;;;;;;5040309;28;20300;-70
2022/09/14 09:02:23;;;;;;;;;;;19.90;91.10;;;;;;5041740;28;19935;-70
2022/09/14 09:04:52;;;;;;;;;;;19.90;91.20;;;;;;5031759;28;20347;-71
2022/09/14 09:07:23;;;;;;;;;;;20.00;91.20;;;;;;5044611;28;19970;-71
2022/09/14 09:09:51;;;;;;;;;;;20.00;91.20;;;;;;5044400;28;19933;-72
2022/09/14 09:12:19;;;;;;;;;;;20.00;91.20;;;;;;5043698;28;19931;-70
2022/09/14 09:14:48;;;;;;;;;;;20.00;91.30;;;;;;5044144;28;19986;-71
2022/09/14 09:17:16;;;;;;;;;;;20.10;91.20;;;;;;5040849;28;19970;-72
2022/09/14 09:19:47;;;;;;;;;;;20.10;91.20;;;;;;5040047;28;20031;-70
2022/09/14 09:22:14;;;;;;;;;;;20.10;91.00;;;;;;5042616;28;19971;-70
2022/09/14 09:24:45;;;;;;;;;;;20.20;91.00;;;;;;5040749;28;19949;-71
2022/09/14 09:27:12;;;;;;;;;;;20.20;91.00;;;;;;5041182;28;19939;-70
2022/09/14 09:29:38;;;;;;;;;;;20.30;91.00;;;;;;5042415;28;19929;-71
2022/09/14 09:32:06;;;;;;;;;;;20.30;91.10;;;;;;5043308;28;19936;-70
2022/09/14 09:34:33;;;;;;;;;;;20.40;91.00;;;;;;5046331;28;19935;-70
2022/09/14 09:37:00;;;;;;;;;;;20.50;90.90;;;;;;5046610;28;19928;-71
2022/09/14 09:39:29;;;;;;;;;;;20.50;90.90;;;;;;5042017;28;20372;-71
2022/09/14 09:41:58;;;;;;;;;;;20.60;90.80;;;;;;5038813;28;20010;-70
2022/09/14 09:44:25;;;;;;;;;;;20.60;90.70;;;;;;5043014;28;20447;-70
2022/09/14 09:46:54;;;;;;;;;;;20.60;90.60;;;;;;5042776;28;19974;-70
2022/09/14 09:49:22;;;;;;;;;;;20.70;90.50;;;;;;5038385;28;20372;-72
2022/09/14 09:51:49;;;;;;;;;;;20.70;90.50;;;;;;5043190;28;19939;-71
2022/09/14 09:54:33;;;;;;;;;;;20.70;90.30;;;;;;5042459;28;20027;-71
2022/09/14 09:57:02;;;;;;;;;;;20.70;90.30;;;;;;5039281;28;19929;-70
2022/09/14 09:59:30;;;;;;;;;;;20.80;90.30;;;;;;5043244;28;20512;-71
2022/09/14 10:02:13;;;;;;;;;;;20.90;90.30;;;;;;5042534;28;20412;-71
2022/09/14 10:04:55;;;;;;;;;;;20.90;90.40;;;;;;5033412;28;19944;-70
2022/09/14 10:07:22;;;;;;;;;;;21.00;90.30;;;;;;5041635;28;19933;-72
2022/09/14 10:09:56;;;;;;;;;;;21.10;90.00;;;;;;5039571;28;19929;-72
2022/09/14 10:12:24;;;;;;;;;;;21.20;89.70;;;;;;5041801;28;20015;-70
2022/09/14 10:15:02;;;;;;;;;;;21.20;89.50;;;;;;5037468;28;19925;-70
2022/09/14 10:17:29;;;;;;;;;;;21.30;89.30;;;;;;5041199;28;19932;-71
2022/09/14 10:19:57;;;;;;;;;;;21.30;89.00;;;;;;5041704;28;19932;-77
2022/09/14 10:22:26;;;;;;;;;;;21.40;88.90;;;;;;5034351;28;20662;-77
2022/09/14 10:24:57;;;;;;;;;;;21.40;88.60;;;;;;5039633;28;19933;-73
2022/09/14 10:27:38;;;;;;;;;;;21.50;88.40;;;;;;5042679;28;19935;-71
2022/09/14 10:30:06;;;;;;;;;;;21.60;89.00;;;;;;5040820;28;20403;-71
2022/09/14 10:32:33;;;;;;;;;;;21.60;88.10;;;;;;5041232;28;20380;-71
2022/09/14 10:35:00;;;;;;;;;;;21.70;87.90;;;;;;5043556;28;20501;-72
2022/09/14 10:37:31;;;;;;;;;;;21.80;87.70;;;;;;5045144;28;19929;-72
2022/09/14 10:40:05;;;;;;;;;;;21.80;87.70;;;;;;5037712;28;19975;-72
2022/09/14 10:42:35;;;;;;;;;;;21.80;87.40;;;;;;5042870;28;19940;-72
2022/09/14 10:45:07;;;;;;;;;;;21.90;87.20;;;;;;5042521;28;19925;-70
2022/09/14 10:47:41;;;;;;;;;;;21.90;86.90;;;;;;5042269;28;19928;-71
2022/09/14 10:50:18;;;;;;;;;;;22.00;86.90;;;;;;5039899;28;20448;-72
2022/09/14 10:52:47;;;;;;;;;;;22.10;86.80;;;;;;5042573;28;19929;-71
2022/09/14 10:55:33;;;;;;;;;;;22.10;86.60;;;;;;5036620;28;19978;-71
2022/09/14 10:58:07;;;;;;;;;;;22.10;86.50;;;;;;5040745;28;19929;-70
2022/09/14 11:00:39;;;;;;;;;;;22.20;86.40;;;;;;5043814;28;19928;-72
2022/09/14 11:03:16;;;;;;;;;;;22.20;86.30;;;;;;5042428;28;19936;-71
2022/09/14 11:05:46;;;;;;;;;;;22.20;86.30;;;;;;5041458;28;19925;-71
2022/09/14 11:08:17;;;;;;;;;;;22.30;86.10;;;;;;5041594;28;19928;-70
2022/09/14 11:10:52;;;;;;;;;;;22.30;86.10;;;;;;5042739;28;19936;-70
2022/09/14 11:13:26;;;;;;;;;;;22.30;86.10;;;;;;5045523;28;19929;-70
2022/09/14 11:15:58;;;;;;;;;;;22.40;86.10;;;;;;5042146;28;20011;-71
2022/09/14 11:18:33;;;;;;;;;;;22.40;86.10;;;;;;5037095;28;19929;-71
2022/09/14 11:21:03;;;;;;;;;;;22.40;85.80;;;;;;5039138;28;20388;-70
2022/09/14 11:23:36;;;;;;;;;;;22.50;85.70;;;;;;5042757;28;20036;-69
2022/09/14 11:26:04;;;;;;;;;;;22.50;85.60;;;;;;5038163;28;19940;-70
2022/09/14 11:28:34;;;;;;;;;;;22.50;85.50;;;;;;5044832;28;19929;-70
2022/09/14 11:31:04;;;;;;;;;;;22.60;85.50;;;;;;5044395;28;19932;-71
2022/09/14 11:33:33;;;;;;;;;;;22.60;85.40;;;;;;5046938;28;19936;-70
2022/09/14 11:36:01;;;;;;;;;;;22.60;85.00;;;;;;5044916;28;20910;-72
2022/09/14 11:38:28;;;;;;;;;;;22.70;84.90;;;;;;5045115;28;19928;-72
2022/09/14 11:40:57;;;;;;;;;;;22.80;84.70;;;;;;5042184;28;19955;-70
2022/09/14 11:43:26;;;;;;;;;;;22.80;84.50;;;;;;5046303;28;19929;-71
2022/09/14 11:45:54;;;;;;;;;;;22.90;84.30;;;;;;5044765;28;19936;-70
2022/09/14 11:48:25;;;;;;;;;;;22.90;84.20;;;;;;5045156;28;19940;-71
2022/09/14 11:50:54;;;;;;;;;;;22.90;84.00;;;;;;5044573;28;19940;-71
2022/09/14 11:53:21;;;;;;;;;;;23.00;84.00;;;;;;5044848;28;19964;-71
2022/09/14 11:55:49;;;;;;;;;;;23.00;83.90;;;;;;5040351;28;19928;-70
2022/09/14 11:58:17;;;;;;;;;;;23.00;83.70;;;;;;5044882;28;19935;-70
2022/09/14 12:00:46;;;;;;;;;;;23.00;83.70;;;;;;5043486;28;19935;-70
2022/09/14 12:03:14;;;;;;;;;;;23.00;83.70;;;;;;5042757;28;20479;-71
2022/09/14 12:05:43;;;;;;;;;;;23.00;83.60;;;;;;5044351;28;19936;-71
2022/09/14 12:08:27;;;;;;;;;;;23.00;83.50;;;;;;5044485;28;20043;-70
2022/09/14 12:11:13;;;;;;;;;;;23.00;83.50;;;;;;5040313;28;19929;-71
2022/09/14 12:13:39;;;;;;;;;;;23.00;83.50;;;;;;5043688;28;20369;-70
2022/09/14 12:16:07;;;;;;;;;;;23.00;83.50;;;;;;5043911;28;19982;-71
2022/09/14 12:18:35;;;;;;;;;;;23.00;83.40;;;;;;5040524;28;19936;-71
2022/09/14 12:21:06;;;;;;;;;;;23.00;83.40;;;;;;5042454;28;19940;-71
2022/09/14 12:23:44;;;;;;;;;;;23.00;83.30;;;;;;5040145;28;20047;-71
2022/09/14 12:26:26;;;;;;;;;;;23.00;83.20;;;;;;5041023;28;19932;-70
2022/09/14 12:28:55;;;;;;;;;;;23.00;83.20;;;;;;5044139;28;19933;-70
2022/09/14 12:31:33;;;;;;;;;;;23.00;83.10;;;;;;5044279;28;20574;-70
2022/09/14 12:34:14;;;;;;;;;;;23.00;83.80;;;;;;5047291;28;19974;-71
2022/09/14 12:36:59;;;;;;;;;;;23.00;83.10;;;;;;5044942;28;19998;-69
2022/09/14 12:39:29;;;;;;;;;;;23.00;83.10;;;;;;5036366;28;20015;-70
2022/09/14 12:41:59;;;;;;;;;;;23.00;82.90;;;;;;5040164;28;20123;-71
2022/09/14 12:44:44;;;;;;;;;;;23.00;82.90;;;;;;5044293;28;19932;-71
2022/09/14 12:47:29;;;;;;;;;;;23.00;83.10;;;;;;5043381;28;19982;-70
2022/09/14 12:49:57;;;;;;;;;;;23.00;83.10;;;;;;5045281;28;20371;-72
2022/09/14 12:52:31;;;;;;;;;;;23.00;83.10;;;;;;5043240;28;19936;-70
2022/09/14 12:55:06;;;;;;;;;;;23.00;83.50;;;;;;5041019;28;19959;-70
2022/09/14 12:57:39;;;;;;;;;;;23.00;83.90;;;;;;5042782;28;19933;-69
2022/09/14 13:00:12;;;;;;;;;;;23.00;84.40;;;;;;5043702;28;20313;-69
2022/09/14 13:03:00;;;;;;;;;;;23.00;84.60;;;;;;5040772;28;20030;-71
2022/09/14 13:05:28;;;;;;;;;;;23.00;84.60;;;;;;5043538;28;19928;-70
2022/09/14 13:07:55;;;;;;;;;;;22.90;84.50;;;;;;5043781;28;19928;-71
2022/09/14 13:10:25;;;;;;;;;;;22.90;84.50;;;;;;5044371;28;19933;-70
2022/09/14 13:12:51;;;;;;;;;;;22.90;84.40;;;;;;5043426;28;19936;-70
2022/09/14 13:15:20;;;;;;;;;;;22.80;84.20;;;;;;5043947;28;19982;-70
2022/09/14 13:17:57;;;;;;;;;;;22.70;84.20;;;;;;5045486;28;19929;-69
2022/09/14 13:20:24;;;;;;;;;;;22.70;84.10;;;;;;5039973;28;19925;-70
2022/09/14 13:22:50;;;;;;;;;;;22.70;84.10;;;;;;5041132;28;19975;-71
2022/09/14 13:25:27;;;;;;;;;;;22.60;84.10;;;;;;5039558;28;20675;-71
2022/09/14 13:27:54;;;;;;;;;;;22.50;84.10;;;;;;5042397;28;19933;-69
2022/09/14 13:30:22;;;;;;;;;;;22.50;84.20;;;;;;5044495;28;20003;-78
2022/09/14 13:32:49;;;;;;;;;;;22.40;84.30;;;;;;5039524;28;19932;-76
2022/09/14 13:35:17;;;;;;;;;;;22.40;84.40;;;;;;5041303;28;19938;-75
2022/09/14 13:37:44;;;;;;;;;;;22.30;84.70;;;;;;5039673;28;19940;-77
2022/09/14 13:40:11;;;;;;;;;;;22.30;85.20;;;;;;5040055;28;19958;-76
2022/09/14 13:42:39;;;;;;;;;;;22.20;84.80;;;;;;5039763;28;19990;-78
2022/09/14 13:45:07;;;;;;;;;;;22.10;84.90;;;;;;5038807;28;19936;-78
2022/09/14 13:47:34;;;;;;;;;;;22.10;85.00;;;;;;5038343;28;19964;-79
2022/09/14 13:50:01;;;;;;;;;;;22.10;85.60;;;;;;5040178;28;19928;-79
2022/09/14 13:52:29;;;;;;;;;;;22.00;85.80;;;;;;5040402;28;20024;-78
2022/09/14 13:55:07;;;;;;;;;;;21.90;86.00;;;;;;5038105;28;19929;-79
2022/09/14 13:57:34;;;;;;;;;;;22.00;86.50;;;;;;5042789;28;19997;-76
2022/09/14 14:00:14;;;;;;;;;;;21.90;86.60;;;;;;5042697;28;19933;-78
2022/09/14 14:02:44;;;;;;;;;;;21.80;86.70;;;;;;5044167;28;19935;-77
2022/09/14 14:05:19;;;;;;;;;;;21.80;87.20;;;;;;5042577;28;19928;-77
2022/09/14 14:07:46;;;;;;;;;;;21.70;87.50;;;;;;5040808;28;19932;-77
2022/09/14 14:10:21;;;;;;;;;;;21.70;87.50;;;;;;5039672;28;19933;-77
2022/09/14 14:12:48;;;;;;;;;;;21.60;87.70;;;;;;5042338;28;19992;-79
2022/09/14 14:15:29;;;;;;;;;;;21.60;88.00;;;;;;5037676;28;19995;-78
2022/09/14 14:17:57;;;;;;;;;;;21.60;88.10;;;;;;5036976;28;19983;-77
2022/09/14 14:20:28;;;;;;;;;;;21.50;88.40;;;;;;5040103;28;19976;-76
2022/09/14 14:22:56;;;;;;;;;;;21.50;88.50;;;;;;5031201;28;20011;-75
2022/09/14 14:25:27;;;;;;;;;;;21.40;88.60;;;;;;5030949;28;19933;-75
2022/09/14 14:27:58;;;;;;;;;;;21.40;89.90;;;;;;5036906;28;20056;-76